createdAt,value
2023-05-11T00:02:15.976Z,16.30
2023-05-11T00:04:43.604Z,16.30
2023-05-11T00:07:11.134Z,16.30
2023-05-11T00:09:38.625Z,16.30
2023-05-11T00:12:06.328Z,16.30
2023-05-11T00:14:33.682Z,16.30
2023-05-11T00:17:01.248Z,16.30
2023-05-11T00:19:31.308Z,16.30
2023-05-11T00:21:59.283Z,16.30
2023-05-11T00:24:26.623Z,16.30
2023-05-11T00:26:53.874Z,16.30
2023-05-11T00:29:21.792Z,16.30
2023-05-11T00:31:49.933Z,16.30
2023-05-11T00:34:17.837Z,16.30
2023-05-11T00:36:45.801Z,16.20
2023-05-11T00:39:13.575Z,16.30
2023-05-11T00:41:40.838Z,16.20
2023-05-11T00:44:08.323Z,16.20
2023-05-11T00:46:36.436Z,16.20
2023-05-11T00:49:03.902Z,16.20
2023-05-11T00:51:33.078Z,16.20
2023-05-11T00:54:00.919Z,16.20
2023-05-11T00:56:28.834Z,16.20
2023-05-11T00:58:56.222Z,16.20
2023-05-11T01:01:24.118Z,16.20
2023-05-11T01:03:51.614Z,16.20
2023-05-11T01:07:01.504Z,16.20
2023-05-11T01:10:03.438Z,16.10
2023-05-11T01:12:39.282Z,16.10
2023-05-11T01:15:11.992Z,16.10
2023-05-11T01:17:54.077Z,16.10
2023-05-11T01:20:25.043Z,16.10
2023-05-11T01:23:01.509Z,16.10
2023-05-11T01:25:59.164Z,16.10
2023-05-11T01:28:38.359Z,16.10
2023-05-11T01:31:11.650Z,16.10
2023-05-11T01:33:47.638Z,16.10
2023-05-11T01:36:17.040Z,16.10
2023-05-11T01:38:48.178Z,16.10
2023-05-11T01:41:18.254Z,16.10
2023-05-11T01:43:52.893Z,16.10
2023-05-11T01:46:23.752Z,16.10
2023-05-11T01:48:54.533Z,16.10
2023-05-11T01:51:25.464Z,16.10
2023-05-11T01:53:54.477Z,16.10
2023-05-11T01:56:22.907Z,16.10
2023-05-11T01:58:51.090Z,16.10
2023-05-11T02:01:20.338Z,16.00
2023-05-11T02:03:50.922Z,16.10
2023-05-11T02:06:19.737Z,16.00
2023-05-11T02:08:49.236Z,16.10
2023-05-11T02:11:18.220Z,16.10
2023-05-11T02:13:47.658Z,16.10
2023-05-11T02:16:16.215Z,16.10
2023-05-11T02:18:44.442Z,16.00
2023-05-11T02:21:14.687Z,16.10
2023-05-11T02:23:43.180Z,16.00
2023-05-11T02:26:12.319Z,16.00
2023-05-11T02:28:39.609Z,16.00
2023-05-11T02:31:12.362Z,16.00
2023-05-11T02:33:44.479Z,16.00
2023-05-11T02:36:16.612Z,16.00
2023-05-11T02:38:46.553Z,16.00
2023-05-11T02:41:21.690Z,16.00
2023-05-11T02:43:52.364Z,15.90
2023-05-11T02:46:29.603Z,15.90
2023-05-11T02:49:02.530Z,15.90
2023-05-11T02:51:37.041Z,15.90
2023-05-11T02:54:07.413Z,15.90
2023-05-11T02:56:39.029Z,15.90
2023-05-11T02:59:06.667Z,15.90
2023-05-11T03:01:35.167Z,15.80
2023-05-11T03:04:05.931Z,15.80
2023-05-11T03:06:33.703Z,15.80
2023-05-11T03:09:02.796Z,15.90
2023-05-11T03:11:32.679Z,15.80
2023-05-11T03:14:01.955Z,15.80
2023-05-11T03:16:31.254Z,15.90
2023-05-11T03:19:01.866Z,15.80
2023-05-11T03:21:29.604Z,15.90
2023-05-11T03:23:57.852Z,15.90
2023-05-11T03:26:30.023Z,15.90
2023-05-11T03:29:00.310Z,15.80
2023-05-11T03:31:27.872Z,15.80
2023-05-11T03:33:55.966Z,15.80
2023-05-11T03:36:26.167Z,15.80
2023-05-11T03:38:57.964Z,15.80
2023-05-11T03:41:31.358Z,15.80
2023-05-11T03:44:02.629Z,15.80
2023-05-11T03:46:32.945Z,15.80
2023-05-11T03:49:02.413Z,15.80
2023-05-11T03:51:32.787Z,15.80
2023-05-11T03:54:00.485Z,15.80
2023-05-11T03:56:28.049Z,15.90
2023-05-11T03:58:55.848Z,15.90
2023-05-11T04:01:23.898Z,15.90
2023-05-11T04:03:53.385Z,15.90
2023-05-11T04:06:22.008Z,15.90
2023-05-11T04:08:57.440Z,15.90
2023-05-11T04:11:24.658Z,15.90
2023-05-11T04:13:52.181Z,15.90
2023-05-11T04:16:19.750Z,15.90
2023-05-11T04:18:47.342Z,15.90
2023-05-11T04:21:15.388Z,15.90
2023-05-11T04:23:42.773Z,16.00
2023-05-11T04:26:09.980Z,16.00
2023-05-11T04:28:38.083Z,16.00
2023-05-11T04:31:05.623Z,16.00
2023-05-11T04:33:33.021Z,16.00
2023-05-11T04:36:01.275Z,16.00
2023-05-11T04:38:28.868Z,16.00
2023-05-11T04:40:56.480Z,16.10
2023-05-11T04:43:23.943Z,16.10
2023-05-11T04:45:51.584Z,16.10
2023-05-11T04:48:24.435Z,16.10
2023-05-11T04:50:54.754Z,16.10
2023-05-11T04:53:24.478Z,16.20
2023-05-11T04:55:52.520Z,16.20
2023-05-11T04:58:19.784Z,16.20
2023-05-11T05:00:47.286Z,16.20
2023-05-11T05:03:15.179Z,16.30
2023-05-11T05:05:42.758Z,16.20
2023-05-11T05:08:10.937Z,16.30
2023-05-11T05:10:39.021Z,16.30
2023-05-11T05:13:06.670Z,16.30
2023-05-11T05:15:34.203Z,16.30
2023-05-11T05:18:01.735Z,16.40
2023-05-11T05:20:30.035Z,16.40
2023-05-11T05:22:58.946Z,16.40
2023-05-11T05:25:26.450Z,16.50
2023-05-11T05:27:54.023Z,16.50
2023-05-11T05:30:21.734Z,16.50
2023-05-11T05:32:49.808Z,16.50
2023-05-11T05:35:17.543Z,16.50
2023-05-11T05:37:45.000Z,16.50
2023-05-11T05:40:12.799Z,16.50
2023-05-11T05:42:50.259Z,16.50
2023-05-11T05:45:21.599Z,16.50
2023-05-11T05:47:51.681Z,16.50
2023-05-11T05:50:19.962Z,16.60
2023-05-11T05:52:47.946Z,16.60
2023-05-11T05:55:15.811Z,16.50
2023-05-11T05:57:45.361Z,16.50
2023-05-11T06:00:13.852Z,16.50
2023-05-11T06:02:41.625Z,16.50
2023-05-11T06:05:16.017Z,16.60
2023-05-11T06:07:46.642Z,16.60
2023-05-11T06:10:19.628Z,16.60
2023-05-11T06:12:48.343Z,16.60
2023-05-11T06:15:16.280Z,16.60
2023-05-11T06:17:48.292Z,16.60
2023-05-11T06:20:15.956Z,16.70
2023-05-11T06:22:43.582Z,16.70
2023-05-11T06:25:12.034Z,16.70
2023-05-11T06:27:40.774Z,16.80
2023-05-11T06:30:09.160Z,17.00
2023-05-11T06:32:38.255Z,16.90
2023-05-11T06:35:06.745Z,17.00
2023-05-11T06:37:35.471Z,17.00
2023-05-11T06:40:03.942Z,17.10
2023-05-11T06:42:31.351Z,17.20
2023-05-11T06:45:08.311Z,17.30
2023-05-11T06:47:36.079Z,17.30
2023-05-11T06:50:04.079Z,17.30
2023-05-11T06:52:31.830Z,17.40
2023-05-11T06:55:01.761Z,17.40
2023-05-11T06:57:29.202Z,17.50
2023-05-11T06:59:56.790Z,17.50
2023-05-11T07:02:24.593Z,17.60
2023-05-11T07:04:52.063Z,17.60
2023-05-11T07:07:19.883Z,17.60
2023-05-11T07:09:47.665Z,17.60
2023-05-11T07:12:15.214Z,17.60
2023-05-11T07:14:42.616Z,17.70
2023-05-11T07:17:10.177Z,17.70
2023-05-11T07:19:37.543Z,17.70
2023-05-11T07:22:05.808Z,17.70
2023-05-11T07:24:33.310Z,17.80
2023-05-11T07:27:01.953Z,17.80
2023-05-11T07:29:29.551Z,17.80
2023-05-11T07:31:57.069Z,17.90
2023-05-11T07:34:24.680Z,18.00
2023-05-11T07:36:52.014Z,18.00
2023-05-11T07:39:19.542Z,18.10
2023-05-11T07:41:47.214Z,18.10
2023-05-11T07:44:14.893Z,18.10
2023-05-11T07:46:42.679Z,18.10
2023-05-11T07:49:18.617Z,18.10
2023-05-11T07:51:48.218Z,18.00
2023-05-11T07:54:15.664Z,18.10
2023-05-11T07:56:43.179Z,18.10
2023-05-11T07:59:10.818Z,18.10
2023-05-11T08:01:38.531Z,18.10
2023-05-11T08:04:05.978Z,18.10
2023-05-11T08:06:33.575Z,18.10
2023-05-11T08:09:01.039Z,18.10
2023-05-11T08:11:28.555Z,18.20
2023-05-11T08:13:56.142Z,18.20
2023-05-11T08:16:23.580Z,18.30
2023-05-11T08:18:51.168Z,18.30
2023-05-11T08:21:18.711Z,18.30
2023-05-11T08:23:46.110Z,18.40
2023-05-11T08:26:13.643Z,18.40
2023-05-11T08:28:41.202Z,18.30
2023-05-11T08:31:08.849Z,18.30
2023-05-11T08:33:38.655Z,18.30
2023-05-11T08:36:07.328Z,18.30
2023-05-11T08:38:36.466Z,18.30
2023-05-11T08:41:04.884Z,18.30
2023-05-11T08:43:35.466Z,18.30
2023-05-11T08:46:04.957Z,18.30
2023-05-11T08:48:32.659Z,18.30
2023-05-11T08:51:00.324Z,18.30
2023-05-11T08:53:28.276Z,18.40
2023-05-11T08:55:58.359Z,18.40
2023-05-11T08:58:27.470Z,18.40
2023-05-11T09:00:55.736Z,18.40
2023-05-11T09:03:23.628Z,18.30
2023-05-11T09:05:53.003Z,18.40
2023-05-11T09:08:22.925Z,18.30
2023-05-11T09:10:50.915Z,18.30
2023-05-11T09:13:18.719Z,18.30
2023-05-11T09:15:46.312Z,18.30
2023-05-11T09:18:13.945Z,18.20
2023-05-11T09:20:43.958Z,18.20
2023-05-11T09:23:15.555Z,18.20
2023-05-11T09:25:43.851Z,18.10
2023-05-11T09:28:17.367Z,18.20
2023-05-11T09:30:53.997Z,18.30
2023-05-11T09:33:25.898Z,18.40
2023-05-11T09:35:53.800Z,18.70
2023-05-11T09:38:24.865Z,18.90
2023-05-11T09:40:55.482Z,19.10
2023-05-11T09:43:27.988Z,19.30
2023-05-11T09:45:57.633Z,19.50
2023-05-11T09:48:31.601Z,19.60
2023-05-11T09:51:07.254Z,19.60
2023-05-11T09:53:44.188Z,19.70
2023-05-11T09:56:15.977Z,19.70
2023-05-11T09:58:49.167Z,19.70
2023-05-11T10:01:18.585Z,19.60
2023-05-11T10:03:47.713Z,19.60
2023-05-11T10:06:18.017Z,19.60
2023-05-11T10:08:47.283Z,19.60
2023-05-11T10:11:15.293Z,19.60
2023-05-11T10:13:44.754Z,19.50
2023-05-11T10:16:15.287Z,19.50
2023-05-11T10:18:44.157Z,19.40
2023-05-11T10:21:12.399Z,19.30
2023-05-11T10:23:40.201Z,19.20
2023-05-11T10:26:09.077Z,19.20
2023-05-11T10:28:37.168Z,19.10
2023-05-11T10:31:05.092Z,19.10
2023-05-11T10:33:33.422Z,19.00
2023-05-11T10:36:02.434Z,18.90
2023-05-11T10:38:30.044Z,18.90
2023-05-11T10:41:09.509Z,18.80
2023-05-11T10:44:00.380Z,18.80
2023-05-11T10:46:58.505Z,18.90
2023-05-11T10:49:53.608Z,18.90
2023-05-11T10:52:40.872Z,18.90
2023-05-11T10:55:33.102Z,18.90
2023-05-11T10:58:15.591Z,19.00
2023-05-11T11:00:52.182Z,18.90
2023-05-11T11:03:19.808Z,18.90
2023-05-11T11:05:48.230Z,18.90
2023-05-11T11:08:16.040Z,18.90
2023-05-11T11:10:46.169Z,18.80
2023-05-11T11:13:15.371Z,18.70
2023-05-11T11:16:00.280Z,18.60
2023-05-11T11:18:29.897Z,18.50
2023-05-11T11:20:58.682Z,18.50
2023-05-11T11:23:49.997Z,18.40
2023-05-11T11:26:41.236Z,18.40
2023-05-11T11:29:09.384Z,18.40
2023-05-11T11:31:37.729Z,18.40
2023-05-11T11:34:29.829Z,18.40
2023-05-11T11:36:59.583Z,18.40
2023-05-11T11:39:28.879Z,18.40
2023-05-11T11:42:04.465Z,18.50
2023-05-11T11:44:33.976Z,18.50
2023-05-11T11:47:21.286Z,18.60
2023-05-11T11:49:53.969Z,18.70
2023-05-11T11:52:30.449Z,18.80
2023-05-11T11:54:59.802Z,18.90
2023-05-11T11:57:32.007Z,19.00
2023-05-11T12:00:13.083Z,19.00
2023-05-11T12:02:45.039Z,19.10
2023-05-11T12:05:22.476Z,19.10
2023-05-11T12:07:52.221Z,19.10
2023-05-11T12:10:22.250Z,19.10
2023-05-11T12:12:54.774Z,19.00
2023-05-11T12:15:29.746Z,18.90
2023-05-11T12:17:57.550Z,18.90
2023-05-11T12:20:25.958Z,18.90
2023-05-11T12:22:53.629Z,18.80
2023-05-11T12:25:21.836Z,18.80
2023-05-11T12:28:04.278Z,18.70
2023-05-11T12:30:34.111Z,18.80
2023-05-11T12:33:04.443Z,18.80
2023-05-11T12:35:33.777Z,18.80
2023-05-11T12:38:02.705Z,18.80
2023-05-11T12:40:31.262Z,18.80
2023-05-11T12:43:00.015Z,18.90
2023-05-11T12:45:29.102Z,18.90
2023-05-11T12:47:58.504Z,18.90
2023-05-11T12:50:26.152Z,18.90
2023-05-11T12:52:53.664Z,18.90
2023-05-11T12:55:29.771Z,18.90
2023-05-11T12:58:16.105Z,18.90
2023-05-11T13:00:59.740Z,18.90
2023-05-11T13:03:29.537Z,18.90
2023-05-11T13:06:10.856Z,18.90
2023-05-11T13:08:46.507Z,18.90
2023-05-11T13:11:32.206Z,18.90
2023-05-11T13:13:59.558Z,19.00
2023-05-11T13:16:27.626Z,19.10
2023-05-11T13:19:08.362Z,19.10
2023-05-11T13:21:36.443Z,19.10
2023-05-11T13:24:04.326Z,19.10
2023-05-11T13:26:32.142Z,19.10
2023-05-11T13:29:10.045Z,19.10
2023-05-11T13:31:45.620Z,19.20
2023-05-11T13:34:13.285Z,19.10
2023-05-11T13:36:42.102Z,19.10
2023-05-11T13:39:09.812Z,19.00
2023-05-11T13:41:37.320Z,18.90
2023-05-11T13:44:05.522Z,18.90
2023-05-11T13:46:33.043Z,18.80
2023-05-11T13:49:01.022Z,18.80
2023-05-11T13:51:28.519Z,18.80
2023-05-11T13:53:56.112Z,18.80
2023-05-11T13:56:23.633Z,18.90
2023-05-11T13:58:51.051Z,18.90
2023-05-11T14:01:18.554Z,18.90
2023-05-11T14:03:51.993Z,19.00
2023-05-11T14:06:21.851Z,19.10
2023-05-11T14:08:49.739Z,19.10
2023-05-11T14:11:17.298Z,19.10
2023-05-11T14:13:44.822Z,19.20
2023-05-11T14:16:12.639Z,19.20
2023-05-11T14:18:40.860Z,19.20
2023-05-11T14:21:08.608Z,19.20
2023-05-11T14:23:38.334Z,19.10
2023-05-11T14:26:07.463Z,19.00
2023-05-11T14:28:35.075Z,19.00
2023-05-11T14:31:02.710Z,18.90
2023-05-11T14:33:30.378Z,18.80
2023-05-11T14:35:57.902Z,18.80
2023-05-11T14:38:25.362Z,18.70
2023-05-11T14:40:52.864Z,18.60
2023-05-11T14:43:20.324Z,18.50
2023-05-11T14:45:48.053Z,18.50
2023-05-11T14:48:15.891Z,18.50
2023-05-11T14:50:43.320Z,18.40
2023-05-11T14:53:11.912Z,18.40
2023-05-11T14:55:39.802Z,18.40
2023-05-11T14:58:11.008Z,18.40
2023-05-11T15:00:40.253Z,18.40
2023-05-11T15:03:08.357Z,18.50
2023-05-11T15:05:35.990Z,18.50
2023-05-11T15:08:03.670Z,18.50
2023-05-11T15:10:31.323Z,18.50
2023-05-11T15:12:58.973Z,18.50
2023-05-11T15:15:26.544Z,18.50
2023-05-11T15:17:54.368Z,18.50
2023-05-11T15:20:22.067Z,18.50
2023-05-11T15:22:49.579Z,18.50
2023-05-11T15:25:17.336Z,18.50
2023-05-11T15:27:45.371Z,18.50
2023-05-11T15:30:14.238Z,18.50
2023-05-11T15:32:42.115Z,18.50
2023-05-11T15:35:09.954Z,18.50
2023-05-11T15:37:37.411Z,18.50
2023-05-11T15:40:06.319Z,18.50
2023-05-11T15:42:33.987Z,18.50
2023-05-11T15:45:02.196Z,18.50
2023-05-11T15:47:29.985Z,18.50
2023-05-11T15:49:57.671Z,18.50
2023-05-11T15:52:25.259Z,18.40
2023-05-11T15:54:52.740Z,18.30
2023-05-11T15:57:20.215Z,18.20
2023-05-11T15:59:47.677Z,18.10
2023-05-11T16:02:15.244Z,18.10
2023-05-11T16:04:42.728Z,18.00
2023-05-11T16:07:10.093Z,18.00
2023-05-11T16:09:37.500Z,17.90
2023-05-11T16:12:05.429Z,17.90
2023-05-11T16:14:32.937Z,17.80
2023-05-11T16:17:01.698Z,17.80
2023-05-11T16:19:30.030Z,17.70
2023-05-11T16:21:57.849Z,17.80
2023-05-11T16:24:25.481Z,17.70
2023-05-11T16:26:53.000Z,17.70
2023-05-11T16:29:20.591Z,17.70
2023-05-11T16:31:48.063Z,17.70
2023-05-11T16:34:15.640Z,17.60
2023-05-11T16:36:43.440Z,17.60
2023-05-11T16:39:11.260Z,17.60
2023-05-11T16:41:38.775Z,17.50
2023-05-11T16:44:06.572Z,17.50
2023-05-11T16:46:34.147Z,17.50
2023-05-11T16:49:02.208Z,17.50
2023-05-11T16:51:29.756Z,17.40
2023-05-11T16:53:57.241Z,17.30
2023-05-11T16:56:24.769Z,17.30
2023-05-11T16:58:52.522Z,17.20
2023-05-11T17:01:20.475Z,17.10
2023-05-11T17:03:48.071Z,17.10
2023-05-11T17:06:19.052Z,17.00
2023-05-11T17:08:48.574Z,17.00
2023-05-11T17:11:17.097Z,16.90
2023-05-11T17:13:44.598Z,16.90
2023-05-11T17:16:12.371Z,16.80
2023-05-11T17:18:39.868Z,16.80
2023-05-11T17:21:07.166Z,16.70
2023-05-11T17:23:34.967Z,16.70
2023-05-11T17:26:10.028Z,16.60
2023-05-11T17:28:38.434Z,16.50
2023-05-11T17:31:11.310Z,16.50
2023-05-11T17:33:39.786Z,16.40
2023-05-11T17:36:08.246Z,16.40
2023-05-11T17:38:36.233Z,16.30
2023-05-11T17:41:06.969Z,16.30
2023-05-11T17:43:35.698Z,16.30
2023-05-11T17:46:04.064Z,16.30
2023-05-11T17:48:32.181Z,16.20
2023-05-11T17:50:59.842Z,16.20
2023-05-11T17:53:27.302Z,16.10
2023-05-11T17:55:57.578Z,16.10
2023-05-11T17:58:24.818Z,16.10
2023-05-11T18:00:52.184Z,16.10
2023-05-11T18:03:19.982Z,16.00
2023-05-11T18:05:49.011Z,16.00
2023-05-11T18:08:16.942Z,16.00
2023-05-11T18:10:44.465Z,16.00
2023-05-11T18:13:12.237Z,15.90
2023-05-11T18:15:39.805Z,15.90
2023-05-11T18:18:07.542Z,15.90
2023-05-11T18:20:37.397Z,15.90
2023-05-11T18:23:05.321Z,15.80
2023-05-11T18:25:32.633Z,15.80
2023-05-11T18:28:00.400Z,15.80
2023-05-11T18:30:31.674Z,15.80
2023-05-11T18:32:59.067Z,15.80
2023-05-11T18:35:26.386Z,15.70
2023-05-11T18:37:54.127Z,15.70
2023-05-11T18:40:22.305Z,15.70
2023-05-11T18:42:52.193Z,15.60
2023-05-11T18:45:20.030Z,15.60
2023-05-11T18:47:47.771Z,15.60
2023-05-11T18:50:15.261Z,15.60
2023-05-11T18:52:42.974Z,15.60
2023-05-11T18:55:10.497Z,15.50
2023-05-11T18:57:39.445Z,15.50
2023-05-11T19:00:07.796Z,15.50
2023-05-11T19:02:35.377Z,15.40
2023-05-11T19:05:04.331Z,15.40
2023-05-11T19:07:31.891Z,15.40
2023-05-11T19:09:59.952Z,15.40
2023-05-11T19:12:27.453Z,15.40
2023-05-11T19:14:57.675Z,15.40
2023-05-11T19:17:25.554Z,15.30
2023-05-11T19:19:53.086Z,15.30
2023-05-11T19:22:22.140Z,15.30
2023-05-11T19:24:50.081Z,15.30
2023-05-11T19:27:17.702Z,15.30
2023-05-11T19:29:45.229Z,15.30
2023-05-11T19:32:12.853Z,15.30
2023-05-11T19:34:40.418Z,15.20
2023-05-11T19:37:09.005Z,15.20
2023-05-11T19:39:36.499Z,15.20
2023-05-11T19:42:04.059Z,15.20
2023-05-11T19:44:33.134Z,15.20
2023-05-11T19:47:00.899Z,15.10
2023-05-11T19:49:29.259Z,15.20
2023-05-11T19:51:56.600Z,15.10
2023-05-11T19:54:23.809Z,15.10
2023-05-11T19:56:51.148Z,15.10
2023-05-11T19:59:18.465Z,15.10
2023-05-11T20:01:46.697Z,15.10
2023-05-11T20:04:14.967Z,15.10
2023-05-11T20:06:42.386Z,15.00
2023-05-11T20:09:09.843Z,15.00
2023-05-11T20:11:37.612Z,15.10
2023-05-11T20:14:06.052Z,15.00
2023-05-11T20:16:33.474Z,15.10
2023-05-11T20:19:01.357Z,15.10
2023-05-11T20:21:28.881Z,15.10
2023-05-11T20:23:56.569Z,15.10
2023-05-11T20:26:24.193Z,15.10
2023-05-11T20:28:51.498Z,15.10
2023-05-11T20:31:19.000Z,15.10
2023-05-11T20:36:16.926Z,15.10
2023-05-11T20:38:44.458Z,15.10
2023-05-11T20:41:11.895Z,15.10
2023-05-11T20:43:39.156Z,15.00
2023-05-11T20:46:07.498Z,15.00
2023-05-11T20:48:40.504Z,15.10
2023-05-11T20:51:08.788Z,15.10
2023-05-11T20:53:36.211Z,15.10
2023-05-11T20:56:03.855Z,15.10
2023-05-11T20:58:31.634Z,15.10
2023-05-11T21:00:59.483Z,15.10
2023-05-11T21:03:27.698Z,15.10
2023-05-11T21:05:56.065Z,15.10
2023-05-11T21:08:23.339Z,15.10
2023-05-11T21:10:50.624Z,15.10
2023-05-11T21:13:18.057Z,15.10
2023-05-11T21:15:45.483Z,15.00
2023-05-11T21:18:13.059Z,15.00
2023-05-11T21:20:40.737Z,15.00
2023-05-11T21:23:08.439Z,15.00
2023-05-11T21:25:35.704Z,15.00
2023-05-11T21:28:04.046Z,15.00
2023-05-11T21:30:31.650Z,15.00
2023-05-11T21:32:59.257Z,15.00
2023-05-11T21:35:27.008Z,15.00
2023-05-11T21:37:54.224Z,15.00
2023-05-11T21:40:21.691Z,15.00
2023-05-11T21:42:49.176Z,15.00
2023-05-11T21:45:16.573Z,15.00
2023-05-11T21:47:44.003Z,15.00
2023-05-11T21:50:12.356Z,15.00
2023-05-11T21:52:39.819Z,15.00
2023-05-11T21:55:07.948Z,15.00
2023-05-11T21:57:35.584Z,15.00
2023-05-11T22:00:02.941Z,15.00
2023-05-11T22:02:32.577Z,15.00
2023-05-11T22:04:59.885Z,15.10
2023-05-11T22:07:27.302Z,15.00
2023-05-11T22:09:54.720Z,15.00
2023-05-11T22:12:21.912Z,15.00
2023-05-11T22:14:49.288Z,15.00
2023-05-11T22:17:16.529Z,15.00
2023-05-11T22:19:43.877Z,15.00
2023-05-11T22:22:11.252Z,15.00
2023-05-11T22:24:38.673Z,14.90
2023-05-11T22:27:08.501Z,14.90
2023-05-11T22:29:36.342Z,14.80
2023-05-11T22:32:04.271Z,14.80
2023-05-11T22:34:31.655Z,14.80
2023-05-11T22:37:00.126Z,14.80
2023-05-11T22:39:28.588Z,14.70
2023-05-11T22:41:56.494Z,14.70
2023-05-11T22:44:23.948Z,14.70
2023-05-11T22:46:51.802Z,14.70
2023-05-11T22:49:19.106Z,14.70
2023-05-11T22:51:46.377Z,14.70
2023-05-11T22:54:15.623Z,14.70
2023-05-11T22:56:43.133Z,14.70
2023-05-11T22:59:10.710Z,14.70
2023-05-11T23:01:38.372Z,14.70
2023-05-11T23:04:05.727Z,14.80
2023-05-11T23:06:33.117Z,14.80
2023-05-11T23:09:00.632Z,14.80
2023-05-11T23:11:28.140Z,14.80
2023-05-11T23:13:55.550Z,14.80
2023-05-11T23:16:23.908Z,14.80
2023-05-11T23:18:51.523Z,14.80
2023-05-11T23:21:18.974Z,14.90
2023-05-11T23:23:46.265Z,14.80
2023-05-11T23:26:13.772Z,14.80
2023-05-11T23:28:41.491Z,14.80
2023-05-11T23:31:08.882Z,14.80
2023-05-11T23:33:36.323Z,14.80
2023-05-11T23:36:03.750Z,14.80
2023-05-11T23:38:31.231Z,14.80
2023-05-11T23:40:59.226Z,14.80
2023-05-11T23:43:28.130Z,14.80
2023-05-11T23:45:57.640Z,14.80
2023-05-11T23:48:25.274Z,14.70
2023-05-11T23:50:52.711Z,14.70
2023-05-11T23:53:19.960Z,14.70
2023-05-11T23:55:48.119Z,14.70
2023-05-11T23:58:15.621Z,14.70
